createdAt,value
2018-07-11T00:01:56.436Z,15.50
2018-07-11T00:04:27.670Z,15.60
2018-07-11T00:09:27.612Z,15.40
2018-07-11T00:11:57.732Z,15.30
2018-07-11T00:14:28.013Z,15.30
2018-07-11T00:17:03.175Z,15.20
2018-07-11T00:19:33.662Z,15.20
2018-07-11T00:22:03.438Z,15.20
2018-07-11T00:24:34.214Z,15.10
2018-07-11T00:27:04.070Z,15.20
2018-07-11T00:29:34.617Z,15.10
2018-07-11T00:32:05.613Z,15.10
2018-07-11T00:34:37.100Z,15.10
2018-07-11T00:37:06.692Z,15.10
2018-07-11T00:39:37.793Z,15.00
2018-07-11T00:42:07.646Z,15.00
2018-07-11T00:44:37.118Z,15.00
2018-07-11T00:47:08.594Z,14.90
2018-07-11T00:49:39.626Z,14.90
2018-07-11T00:52:09.898Z,14.90
2018-07-11T00:54:39.554Z,14.90
2018-07-11T00:57:09.629Z,14.80
2018-07-11T00:59:40.596Z,14.70
2018-07-11T01:02:10.593Z,14.70
2018-07-11T01:04:39.998Z,14.70
2018-07-11T01:07:09.880Z,14.60
2018-07-11T01:09:41.971Z,14.50
2018-07-11T01:12:12.197Z,14.60
2018-07-11T01:14:43.869Z,14.60
2018-07-11T01:17:19.256Z,14.60
2018-07-11T01:19:51.245Z,14.60
2018-07-11T01:24:52.316Z,14.40
2018-07-11T01:27:21.878Z,14.40
2018-07-11T01:29:51.890Z,14.40
2018-07-11T01:32:22.066Z,14.40
2018-07-11T01:34:52.893Z,14.20
2018-07-11T01:37:22.688Z,14.20
2018-07-11T01:39:53.095Z,14.20
2018-07-11T01:42:23.518Z,14.20
2018-07-11T01:44:54.106Z,14.20
2018-07-11T01:47:24.414Z,14.10
2018-07-11T01:49:54.120Z,14.10
2018-07-11T01:52:34.610Z,13.90
2018-07-11T01:55:05.868Z,14.00
2018-07-11T01:57:35.871Z,14.00
2018-07-11T02:00:06.621Z,13.90
2018-07-11T02:02:37.407Z,13.90
2018-07-11T02:05:08.470Z,13.90
2018-07-11T02:07:38.318Z,13.90
2018-07-11T02:10:09.467Z,13.60
2018-07-11T02:12:40.293Z,13.60
2018-07-11T02:15:10.594Z,13.60
2018-07-11T02:17:41.350Z,13.70
2018-07-11T02:20:15.394Z,13.70
2018-07-11T02:22:47.650Z,13.50
2018-07-11T02:25:18.408Z,13.40
2018-07-11T02:27:49.501Z,13.40
2018-07-11T02:30:19.749Z,13.40
2018-07-11T02:32:50.490Z,13.40
2018-07-11T02:35:20.669Z,13.30
2018-07-11T02:37:50.334Z,13.20
2018-07-11T02:40:20.150Z,13.50
2018-07-11T02:42:49.781Z,13.50
2018-07-11T02:45:19.610Z,13.70
2018-07-11T02:47:50.573Z,13.40
2018-07-11T02:50:21.381Z,13.40
2018-07-11T02:52:51.150Z,13.40
2018-07-11T02:55:21.899Z,13.30
2018-07-11T02:57:51.771Z,13.10
2018-07-11T03:00:22.270Z,13.20
2018-07-11T03:02:53.316Z,13.10
2018-07-11T03:05:24.526Z,13.10
2018-07-11T03:07:54.063Z,13.10
2018-07-11T03:10:23.952Z,13.10
2018-07-11T03:12:54.358Z,12.90
2018-07-11T03:15:24.782Z,12.90
2018-07-11T03:17:54.697Z,13.00
2018-07-11T03:20:24.491Z,13.00
2018-07-11T03:22:54.445Z,13.00
2018-07-11T03:25:23.866Z,12.90
2018-07-11T03:27:54.642Z,12.80
2018-07-11T03:30:25.519Z,12.80
2018-07-11T03:32:56.194Z,12.70
2018-07-11T03:35:26.572Z,12.60
2018-07-11T03:37:56.675Z,12.60
2018-07-11T03:40:28.262Z,12.80
2018-07-11T03:42:58.445Z,12.70
2018-07-11T03:45:28.228Z,12.70
2018-07-11T03:47:58.155Z,12.80
2018-07-11T03:50:27.643Z,12.80
2018-07-11T03:52:57.557Z,12.80
2018-07-11T03:55:27.378Z,12.70
2018-07-11T04:00:28.143Z,12.90
2018-07-11T04:02:58.013Z,12.90
2018-07-11T04:05:29.660Z,12.90
2018-07-11T04:07:59.382Z,12.80
2018-07-11T04:10:28.546Z,12.80
2018-07-11T04:13:00.707Z,13.00
2018-07-11T04:15:30.293Z,13.20
2018-07-11T04:18:00.202Z,13.20
2018-07-11T04:23:00.246Z,13.30
2018-07-11T04:25:30.374Z,13.30
2018-07-11T04:30:35.870Z,13.20
2018-07-11T04:33:05.793Z,13.60
2018-07-11T04:35:35.378Z,13.60
2018-07-11T04:38:05.486Z,13.50
2018-07-11T04:40:36.154Z,13.50
2018-07-11T04:43:07.413Z,13.60
2018-07-11T04:45:38.562Z,13.50
2018-07-11T04:48:09.356Z,13.60
2018-07-11T04:50:40.371Z,13.80
2018-07-11T04:53:11.653Z,13.90
2018-07-11T04:55:42.723Z,14.00
2018-07-11T04:58:13.009Z,13.90
2018-07-11T05:00:43.206Z,14.10
2018-07-11T05:03:13.629Z,14.10
2018-07-11T05:05:43.274Z,14.30
2018-07-11T05:08:13.438Z,14.20
2018-07-11T05:10:43.313Z,14.20
2018-07-11T05:13:13.474Z,14.40
2018-07-11T05:18:13.627Z,14.70
2018-07-11T05:20:43.936Z,14.80
2018-07-11T05:23:14.959Z,14.80
2018-07-11T05:25:46.057Z,15.00
2018-07-11T05:28:16.282Z,15.10
2018-07-11T05:30:45.454Z,15.10
2018-07-11T05:33:14.930Z,15.20
2018-07-11T05:35:43.794Z,15.10
2018-07-11T05:38:14.806Z,15.10
2018-07-11T05:40:44.868Z,15.20
2018-07-11T05:43:14.458Z,15.50
2018-07-11T05:45:44.462Z,15.50
2018-07-11T05:48:14.714Z,15.60
2018-07-11T05:50:44.131Z,15.70
2018-07-11T05:53:14.534Z,15.70
2018-07-11T05:55:45.268Z,15.90
2018-07-11T05:58:16.011Z,15.90
2018-07-11T06:00:46.159Z,16.10
2018-07-11T06:03:17.380Z,16.20
2018-07-11T06:08:16.337Z,16.20
2018-07-11T06:10:46.629Z,16.20
2018-07-11T06:13:17.039Z,16.40
2018-07-11T06:15:47.190Z,16.40
2018-07-11T06:18:17.340Z,16.40
2018-07-11T06:20:47.230Z,16.60
2018-07-11T06:23:16.993Z,16.70
2018-07-11T06:25:46.502Z,16.70
2018-07-11T06:28:16.021Z,16.90
2018-07-11T06:30:46.134Z,16.90
2018-07-11T06:33:16.962Z,16.90
2018-07-11T06:35:47.334Z,17.00
2018-07-11T06:38:17.278Z,17.00
2018-07-11T06:40:47.135Z,17.10
2018-07-11T06:43:17.927Z,17.10
2018-07-11T06:45:47.615Z,17.20
2018-07-11T06:48:18.102Z,17.20
2018-07-11T06:50:48.786Z,17.20
2018-07-11T06:55:48.246Z,17.50
2018-07-11T06:58:19.305Z,17.50
2018-07-11T07:00:48.647Z,17.60
2018-07-11T07:03:17.745Z,17.50
2018-07-11T07:05:47.430Z,17.70
2018-07-11T07:08:18.238Z,17.90
2018-07-11T07:13:19.163Z,17.90
2018-07-11T07:15:49.351Z,18.00
2018-07-11T07:18:20.027Z,18.10
2018-07-11T07:20:50.866Z,18.20
2018-07-11T07:23:20.650Z,17.70
2018-07-11T07:25:51.158Z,18.40
2018-07-11T07:28:21.913Z,18.40
2018-07-11T07:30:51.695Z,18.50
2018-07-11T07:33:22.727Z,18.50
2018-07-11T07:35:52.599Z,18.70
2018-07-11T07:38:22.008Z,18.80
2018-07-11T07:40:52.234Z,18.90
2018-07-11T07:43:22.643Z,19.00
2018-07-11T07:45:53.188Z,19.00
2018-07-11T07:48:22.374Z,19.00
2018-07-11T07:50:52.630Z,19.20
2018-07-11T07:53:23.085Z,19.20
2018-07-11T07:55:53.979Z,19.30
2018-07-11T07:58:23.998Z,19.30
2018-07-11T08:00:54.787Z,19.30
2018-07-11T08:03:25.390Z,19.30
2018-07-11T08:05:56.106Z,19.50
2018-07-11T08:08:26.417Z,19.60
2018-07-11T08:10:56.450Z,19.60
2018-07-11T08:13:25.693Z,19.70
2018-07-11T08:15:56.426Z,19.90
2018-07-11T08:18:27.547Z,19.90
2018-07-11T08:20:57.719Z,19.90
2018-07-11T08:23:40.345Z,20.00
2018-07-11T08:28:56.544Z,19.90
2018-07-11T08:31:38.510Z,20.30
2018-07-11T08:34:19.344Z,20.30
2018-07-11T08:37:00.525Z,20.30
2018-07-11T08:39:44.812Z,20.30
2018-07-11T08:44:31.316Z,20.40
2018-07-11T08:47:12.329Z,20.40
2018-07-11T08:52:59.153Z,20.40
2018-07-11T08:55:40.317Z,20.70
2018-07-11T08:58:21.622Z,20.70
2018-07-11T09:01:05.870Z,20.80
2018-07-11T09:03:57.283Z,21.10
2018-07-11T09:07:13.646Z,21.20
2018-07-11T09:10:01.366Z,21.30
2018-07-11T09:13:44.822Z,21.30
2018-07-11T09:16:31.499Z,21.20
2018-07-11T09:21:14.942Z,21.20
2018-07-11T09:23:57.301Z,21.10
2018-07-11T09:26:27.279Z,21.40
2018-07-11T09:28:57.612Z,21.60
2018-07-11T09:31:28.409Z,21.90
2018-07-11T09:33:59.664Z,22.00
2018-07-11T09:36:30.203Z,22.00
2018-07-11T09:39:01.529Z,22.20
2018-07-11T09:41:32.090Z,22.30
2018-07-11T09:44:02.794Z,22.40
2018-07-11T09:46:32.407Z,22.50
2018-07-11T09:49:03.467Z,22.40
2018-07-11T09:51:33.504Z,22.50
2018-07-11T09:54:03.346Z,22.20
2018-07-11T09:56:33.911Z,22.10
2018-07-11T09:59:04.379Z,22.00
2018-07-11T10:01:35.333Z,21.90
2018-07-11T10:06:36.182Z,21.80
2018-07-11T10:09:06.838Z,22.00
2018-07-11T10:11:37.247Z,22.00
2018-07-11T10:14:08.295Z,22.10
2018-07-11T10:16:39.002Z,22.10
2018-07-11T10:19:08.828Z,22.20
2018-07-11T10:21:39.089Z,22.30
2018-07-11T10:24:08.467Z,22.30
2018-07-11T10:26:38.886Z,22.60
2018-07-11T10:29:09.513Z,22.70
2018-07-11T10:31:38.946Z,23.00
2018-07-11T10:34:10.099Z,23.00
2018-07-11T10:36:40.426Z,23.00
2018-07-11T10:39:12.354Z,22.90
2018-07-11T10:41:42.938Z,23.00
2018-07-11T10:44:13.305Z,23.20
2018-07-11T10:46:44.431Z,23.10
2018-07-11T10:49:14.221Z,23.00
2018-07-11T10:51:44.627Z,23.00
2018-07-11T10:54:14.197Z,23.00
2018-07-11T10:56:45.392Z,23.10
2018-07-11T10:59:16.526Z,23.00
2018-07-11T11:01:46.084Z,23.10
2018-07-11T11:04:19.302Z,23.20
2018-07-11T11:06:49.255Z,23.20
2018-07-11T11:09:19.035Z,23.10
2018-07-11T11:11:49.358Z,23.20
2018-07-11T11:14:21.934Z,23.10
2018-07-11T11:16:51.521Z,23.10
2018-07-11T11:21:52.074Z,23.30
2018-07-11T11:24:22.515Z,23.30
2018-07-11T11:26:52.915Z,23.60
2018-07-11T11:29:24.266Z,23.50
2018-07-11T11:31:54.375Z,23.60
2018-07-11T11:34:24.310Z,23.50
2018-07-11T11:36:54.835Z,23.50
2018-07-11T11:39:24.602Z,23.70
2018-07-11T11:41:54.222Z,23.80
2018-07-11T11:44:24.194Z,24.00
2018-07-11T11:46:58.881Z,24.00
2018-07-11T11:49:28.838Z,23.90
2018-07-11T11:51:59.031Z,23.80
2018-07-11T11:54:29.194Z,23.60
2018-07-11T11:56:59.079Z,23.50
2018-07-11T11:59:29.217Z,23.90
2018-07-11T12:01:59.240Z,24.20
2018-07-11T12:04:29.424Z,24.20
2018-07-11T12:07:00.083Z,24.50
2018-07-11T12:09:29.973Z,24.40
2018-07-11T12:12:02.313Z,24.40
2018-07-11T12:14:32.726Z,23.90
2018-07-11T12:17:02.694Z,23.70
2018-07-11T12:19:32.590Z,23.90
2018-07-11T12:22:03.362Z,24.30
2018-07-11T12:24:34.619Z,24.00
2018-07-11T12:27:04.854Z,24.10
2018-07-11T12:29:34.317Z,24.50
2018-07-11T12:32:04.497Z,24.50
2018-07-11T12:34:34.174Z,24.40
2018-07-11T12:37:03.915Z,24.60
2018-07-11T12:39:33.786Z,24.60
2018-07-11T12:42:03.104Z,24.90
2018-07-11T12:44:33.304Z,24.90
2018-07-11T12:47:03.285Z,24.90
2018-07-11T12:49:34.228Z,24.90
2018-07-11T12:52:03.450Z,24.70
2018-07-11T12:54:33.986Z,24.70
2018-07-11T12:57:03.802Z,24.50
2018-07-11T13:02:02.418Z,23.50
2018-07-11T13:07:02.975Z,23.00
2018-07-11T13:09:32.323Z,22.80
2018-07-11T13:12:01.385Z,22.60
2018-07-11T13:14:31.281Z,22.50
2018-07-11T13:17:01.989Z,22.50
2018-07-11T13:19:33.183Z,22.50
2018-07-11T13:22:02.950Z,22.50
2018-07-11T13:24:33.120Z,22.70
2018-07-11T13:27:02.936Z,22.80
2018-07-11T13:29:32.716Z,22.80
2018-07-11T13:32:02.697Z,22.80
2018-07-11T13:34:32.465Z,22.90
2018-07-11T13:37:03.039Z,22.80
2018-07-11T13:39:32.502Z,22.70
2018-07-11T13:42:02.061Z,22.50
2018-07-11T13:44:31.291Z,22.40
2018-07-11T13:47:02.155Z,22.30
2018-07-11T13:49:31.779Z,22.10
2018-07-11T13:52:02.347Z,21.90
2018-07-11T13:54:31.842Z,21.80
2018-07-11T13:57:01.115Z,21.70
2018-07-11T13:59:31.481Z,21.60
2018-07-11T14:02:03.237Z,21.60
2018-07-11T14:04:32.760Z,21.50
2018-07-11T14:07:03.547Z,21.40
2018-07-11T14:12:02.506Z,20.60
2018-07-11T14:14:33.152Z,20.30
2018-07-11T14:17:03.534Z,20.30
2018-07-11T14:19:35.813Z,20.20
2018-07-11T14:22:06.702Z,20.30
2018-07-11T14:24:36.250Z,20.10
2018-07-11T14:27:07.670Z,20.10
2018-07-11T14:29:37.369Z,20.30
2018-07-11T14:32:07.270Z,20.30
2018-07-11T14:34:36.683Z,20.70
2018-07-11T14:37:06.108Z,21.10
2018-07-11T14:39:36.405Z,21.30
2018-07-11T14:42:07.233Z,21.30
2018-07-11T14:44:37.737Z,21.60
2018-07-11T14:47:12.221Z,21.70
2018-07-11T14:49:43.289Z,21.70
2018-07-11T14:52:14.179Z,21.70
2018-07-11T14:54:44.170Z,21.50
2018-07-11T14:57:15.788Z,21.40
2018-07-11T14:59:46.391Z,21.50
2018-07-11T15:02:17.131Z,21.40
2018-07-11T15:04:47.398Z,21.30
2018-07-11T15:07:18.173Z,21.50
2018-07-11T15:09:50.006Z,21.60
2018-07-11T15:12:19.862Z,21.70
2018-07-11T15:14:49.146Z,21.60
2018-07-11T15:17:18.694Z,21.50
2018-07-11T15:19:48.974Z,21.40
2018-07-11T15:22:19.282Z,21.10
2018-07-11T15:27:19.463Z,20.30
2018-07-11T15:29:49.881Z,20.40
2018-07-11T15:32:21.193Z,20.20
2018-07-11T15:34:51.663Z,20.10
2018-07-11T15:39:52.191Z,19.90
2018-07-11T15:42:23.083Z,19.80
2018-07-11T15:44:54.389Z,19.60
2018-07-11T15:47:27.069Z,19.50
2018-07-11T15:49:57.474Z,19.40
2018-07-11T15:52:27.464Z,19.50
2018-07-11T15:54:59.449Z,19.70
2018-07-11T15:57:36.445Z,19.60
2018-07-11T16:00:10.074Z,19.80
2018-07-11T16:02:49.358Z,19.80
2018-07-11T16:07:54.135Z,19.90
2018-07-11T16:10:29.041Z,19.80
2018-07-11T16:13:00.196Z,19.70
2018-07-11T16:15:31.483Z,19.70
2018-07-11T16:18:02.007Z,19.60
2018-07-11T16:20:32.573Z,19.70
2018-07-11T16:23:03.386Z,19.70
2018-07-11T16:25:34.138Z,19.40
2018-07-11T16:28:06.206Z,19.30
2018-07-11T16:30:37.044Z,19.10
2018-07-11T16:33:07.252Z,19.00
2018-07-11T16:38:08.304Z,18.80
2018-07-11T16:40:38.778Z,19.10
2018-07-11T16:43:08.747Z,19.10
2018-07-11T16:45:38.758Z,18.70
2018-07-11T16:48:10.221Z,18.70
2018-07-11T16:50:40.958Z,18.70
2018-07-11T16:53:11.886Z,18.60
2018-07-11T16:55:41.668Z,18.50
2018-07-11T16:58:12.597Z,18.50
2018-07-11T17:00:41.824Z,18.50
2018-07-11T17:03:13.927Z,18.50
2018-07-11T17:05:56.038Z,18.70
2018-07-11T17:08:30.992Z,18.80
2018-07-11T17:11:10.371Z,19.00
2018-07-11T17:13:39.968Z,19.00
2018-07-11T17:16:09.353Z,19.10
2018-07-11T17:18:51.353Z,19.30
2018-07-11T17:21:44.320Z,19.40
2018-07-11T17:24:17.521Z,19.50
2018-07-11T17:26:49.831Z,19.50
2018-07-11T17:29:26.370Z,19.50
2018-07-11T17:32:01.730Z,19.20
2018-07-11T17:34:31.702Z,19.10
2018-07-11T17:37:07.170Z,19.10
2018-07-11T17:39:53.978Z,19.00
2018-07-11T17:45:18.521Z,18.60
2018-07-11T17:50:05.262Z,18.70
2018-07-11T17:52:45.638Z,18.70
2018-07-11T17:55:24.003Z,18.70
2018-07-11T17:57:57.788Z,18.60
2018-07-11T18:00:38.082Z,18.60
2018-07-11T18:03:17.478Z,18.40
2018-07-11T18:08:21.311Z,18.40
2018-07-11T18:10:54.373Z,18.40
2018-07-11T18:13:42.606Z,18.40
2018-07-11T18:16:29.527Z,18.40
2018-07-11T18:20:16.989Z,18.30
2018-07-11T18:22:54.095Z,18.30
2018-07-11T18:25:35.385Z,18.30
2018-07-11T18:29:15.273Z,18.30
2018-07-11T18:32:03.721Z,18.40
2018-07-11T18:36:54.810Z,18.50
2018-07-11T18:39:29.301Z,18.40
2018-07-11T18:44:17.675Z,18.50
2018-07-11T18:47:44.978Z,18.50
2018-07-11T18:50:32.377Z,18.40
2018-07-11T18:54:15.148Z,18.40
2018-07-11T18:56:59.311Z,18.40
2018-07-11T19:00:43.349Z,18.40
2018-07-11T19:03:22.323Z,18.40
2018-07-11T19:05:58.925Z,18.50
2018-07-11T19:08:40.380Z,18.50
2018-07-11T19:11:19.028Z,18.50
2018-07-11T19:13:52.577Z,18.50
2018-07-11T19:16:33.845Z,18.40
2018-07-11T19:19:08.960Z,18.40
2018-07-11T19:22:16.223Z,18.40
2018-07-11T19:27:34.759Z,18.50
2018-07-11T19:30:11.041Z,18.60
2018-07-11T19:32:59.421Z,18.30
2018-07-11T19:37:44.879Z,18.50
2018-07-11T19:40:49.435Z,18.40
2018-07-11T19:45:41.059Z,18.50
2018-07-11T19:49:29.739Z,18.50
2018-07-11T19:52:05.160Z,18.50
2018-07-11T19:54:55.994Z,18.60
2018-07-11T19:57:26.328Z,18.70
2018-07-11T19:59:57.272Z,18.70
2018-07-11T20:02:27.733Z,18.60
2018-07-11T20:04:57.669Z,18.60
2018-07-11T20:07:28.075Z,18.60
2018-07-11T20:09:57.906Z,18.40
2018-07-11T20:12:28.128Z,18.40
2018-07-11T20:14:59.449Z,18.40
2018-07-11T20:17:29.402Z,18.40
2018-07-11T20:19:58.682Z,18.40
2018-07-11T20:22:29.582Z,18.40
2018-07-11T20:25:00.244Z,18.40
2018-07-11T20:27:30.519Z,18.30
2018-07-11T20:30:01.379Z,18.40
2018-07-11T20:32:31.474Z,18.50
2018-07-11T20:35:01.615Z,18.30
2018-07-11T20:37:31.819Z,18.30
2018-07-11T20:40:01.244Z,18.20
2018-07-11T20:42:31.092Z,18.20
2018-07-11T20:45:01.521Z,18.10
2018-07-11T20:47:31.901Z,17.90
2018-07-11T20:50:02.466Z,17.90
2018-07-11T20:52:32.907Z,17.80
2018-07-11T20:55:03.333Z,17.80
2018-07-11T20:57:34.846Z,17.90
2018-07-11T21:00:16.394Z,17.90
2018-07-11T21:03:11.522Z,17.70
2018-07-11T21:05:55.197Z,17.70
2018-07-11T21:08:39.137Z,17.60
2018-07-11T21:13:27.783Z,17.70
2018-07-11T21:17:17.230Z,17.60
2018-07-11T21:19:47.846Z,17.80
2018-07-11T21:22:17.610Z,17.60
2018-07-11T21:24:47.474Z,17.70
2018-07-11T21:27:17.366Z,17.70
2018-07-11T21:29:47.326Z,17.60
2018-07-11T21:32:18.003Z,17.60
2018-07-11T21:34:48.331Z,17.60
2018-07-11T21:37:19.765Z,17.50
2018-07-11T21:39:50.833Z,17.50
2018-07-11T21:42:20.463Z,17.50
2018-07-11T21:44:50.273Z,17.50
2018-07-11T21:47:19.474Z,17.50
2018-07-11T21:49:50.012Z,17.50
2018-07-11T21:52:19.869Z,17.40
2018-07-11T21:54:49.822Z,17.50
2018-07-11T21:57:19.660Z,17.50
2018-07-11T21:59:49.450Z,17.50
2018-07-11T22:02:19.427Z,17.60
2018-07-11T22:04:49.626Z,17.60
2018-07-11T22:07:20.051Z,17.50
2018-07-11T22:09:50.195Z,17.60
2018-07-11T22:12:20.367Z,17.50
2018-07-11T22:14:50.167Z,17.60
2018-07-11T22:17:32.412Z,17.60
2018-07-11T22:20:01.974Z,17.60
2018-07-11T22:22:31.226Z,17.60
2018-07-11T22:25:00.808Z,17.50
2018-07-11T22:27:29.751Z,17.60
2018-07-11T22:29:58.278Z,17.60
2018-07-11T22:32:27.951Z,17.60
2018-07-11T22:34:57.093Z,17.50
2018-07-11T22:37:26.358Z,17.50
2018-07-11T22:39:55.201Z,17.50
2018-07-11T22:42:24.137Z,17.50
2018-07-11T22:44:53.087Z,17.50
2018-07-11T22:47:22.136Z,17.50
2018-07-11T22:49:56.405Z,17.50
2018-07-11T22:52:25.050Z,17.40
2018-07-11T22:54:54.178Z,17.50
2018-07-11T22:57:23.132Z,17.50
2018-07-11T22:59:52.878Z,17.50
2018-07-11T23:02:21.394Z,17.50
2018-07-11T23:04:50.275Z,17.40
2018-07-11T23:07:19.535Z,17.40
2018-07-11T23:09:48.057Z,17.40
2018-07-11T23:12:17.001Z,17.40
2018-07-11T23:14:46.781Z,17.40
2018-07-11T23:17:15.374Z,17.40
2018-07-11T23:19:44.006Z,17.40
2018-07-11T23:22:12.984Z,17.40
2018-07-11T23:27:10.768Z,17.60
2018-07-11T23:29:39.502Z,17.50
2018-07-11T23:32:08.030Z,17.60
2018-07-11T23:34:37.076Z,17.50
2018-07-11T23:37:06.113Z,17.60
2018-07-11T23:39:35.172Z,17.50
2018-07-11T23:42:04.221Z,17.50
2018-07-11T23:44:34.193Z,17.50
2018-07-11T23:47:02.698Z,17.50
2018-07-11T23:49:31.782Z,17.40
2018-07-11T23:52:00.698Z,17.40
2018-07-11T23:54:29.867Z,17.60
2018-07-11T23:56:58.820Z,17.50
2018-07-11T23:59:27.313Z,17.50
